Terminal Aerodrome Forecast
Issued by NWS

Home | Current Version | Previous Version | Text Only | Print | Product List | Glossary On
Versions: 1 2 3 4 5 6 7 8 9 10 11 12 13 14 15 16 17 18 19 20 21 22 23 24 25 26 27 28 29 30 31
212
FTUS43 KLSX 291232 AAA
TAFUIN
TAF AMD
KUIN 291232Z 2913/3012 08013G20KT 5SM -SHRA VCTS SCT009 OVC022CB
      TEMPO 2913/2917 BKN009 OVC022CB
     FM291800 09017G25KT P6SM VCSH OVC015
     FM300300 09016G25KT 5SM -SHRA VCTS BKN008 OVC015CB
     FM300900 11010G16KT 6SM -SHRA OVC008=

USA.gov is the U.S. government's official web portal to all federal, state and local government web resources and services.